sensor_id;sensor_type;location;lat;lon;timestamp;P1;durP1;ratioP1;P2;durP2;ratioP2
37455;SDS011;23316;50.718;7.328;2024-03-06T00:00:09;6.03;;;4.18;;
37455;SDS011;23316;50.718;7.328;2024-03-06T00:02:37;5.88;;;4.60;;
37455;SDS011;23316;50.718;7.328;2024-03-06T00:05:05;5.80;;;4.40;;
37455;SDS011;23316;50.718;7.328;2024-03-06T00:07:33;6.13;;;4.40;;
37455;SDS011;23316;50.718;7.328;2024-03-06T00:10:00;5.40;;;4.82;;
37455;SDS011;23316;50.718;7.328;2024-03-06T00:12:30;5.40;;;4.20;;
37455;SDS011;23316;50.718;7.328;2024-03-06T00:14:58;5.30;;;4.57;;
37455;SDS011;23316;50.718;7.328;2024-03-06T00:17:27;5.32;;;4.30;;
37455;SDS011;23316;50.718;7.328;2024-03-06T00:19:54;7.78;;;4.93;;
37455;SDS011;23316;50.718;7.328;2024-03-06T00:22:21;6.72;;;4.88;;
37455;SDS011;23316;50.718;7.328;2024-03-06T00:24:48;6.47;;;4.97;;
37455;SDS011;23316;50.718;7.328;2024-03-06T00:27:16;6.22;;;4.53;;
37455;SDS011;23316;50.718;7.328;2024-03-06T00:29:43;6.45;;;4.50;;
37455;SDS011;23316;50.718;7.328;2024-03-06T00:32:12;5.57;;;4.30;;
37455;SDS011;23316;50.718;7.328;2024-03-06T00:34:39;6.38;;;4.55;;
37455;SDS011;23316;50.718;7.328;2024-03-06T00:37:06;5.60;;;5.00;;
37455;SDS011;23316;50.718;7.328;2024-03-06T00:39:33;6.50;;;4.80;;
37455;SDS011;23316;50.718;7.328;2024-03-06T00:42:01;4.97;;;4.45;;
37455;SDS011;23316;50.718;7.328;2024-03-06T00:44:29;7.97;;;4.65;;
37455;SDS011;23316;50.718;7.328;2024-03-06T00:46:56;6.10;;;4.72;;
37455;SDS011;23316;50.718;7.328;2024-03-06T00:49:25;7.20;;;4.70;;
37455;SDS011;23316;50.718;7.328;2024-03-06T00:51:52;6.47;;;4.95;;
37455;SDS011;23316;50.718;7.328;2024-03-06T00:54:20;5.75;;;4.90;;
37455;SDS011;23316;50.718;7.328;2024-03-06T00:56:48;6.22;;;5.15;;
37455;SDS011;23316;50.718;7.328;2024-03-06T00:59:15;6.55;;;5.43;;
37455;SDS011;23316;50.718;7.328;2024-03-06T01:01:42;8.27;;;5.45;;
37455;SDS011;23316;50.718;7.328;2024-03-06T01:04:10;5.88;;;4.90;;
37455;SDS011;23316;50.718;7.328;2024-03-06T01:06:38;8.25;;;5.47;;
37455;SDS011;23316;50.718;7.328;2024-03-06T01:09:06;6.80;;;5.40;;
37455;SDS011;23316;50.718;7.328;2024-03-06T01:11:33;6.57;;;5.22;;
37455;SDS011;23316;50.718;7.328;2024-03-06T01:14:00;5.22;;;4.65;;
37455;SDS011;23316;50.718;7.328;2024-03-06T01:16:29;6.78;;;5.18;;
37455;SDS011;23316;50.718;7.328;2024-03-06T01:18:56;6.35;;;5.03;;
37455;SDS011;23316;50.718;7.328;2024-03-06T01:21:23;5.82;;;4.63;;
37455;SDS011;23316;50.718;7.328;2024-03-06T01:23:52;6.95;;;4.88;;
37455;SDS011;23316;50.718;7.328;2024-03-06T01:26:20;6.30;;;4.72;;
37455;SDS011;23316;50.718;7.328;2024-03-06T01:28:47;6.07;;;4.80;;
37455;SDS011;23316;50.718;7.328;2024-03-06T01:31:14;5.18;;;4.50;;
37455;SDS011;23316;50.718;7.328;2024-03-06T01:33:41;5.07;;;4.53;;
37455;SDS011;23316;50.718;7.328;2024-03-06T01:36:09;4.97;;;4.10;;
37455;SDS011;23316;50.718;7.328;2024-03-06T01:38:36;6.20;;;4.50;;
37455;SDS011;23316;50.718;7.328;2024-03-06T01:41:05;5.68;;;4.30;;
37455;SDS011;23316;50.718;7.328;2024-03-06T01:43:36;4.90;;;3.97;;
37455;SDS011;23316;50.718;7.328;2024-03-06T01:46:04;5.57;;;4.18;;
37455;SDS011;23316;50.718;7.328;2024-03-06T01:48:32;4.60;;;3.92;;
37455;SDS011;23316;50.718;7.328;2024-03-06T01:51:01;5.95;;;4.00;;
37455;SDS011;23316;50.718;7.328;2024-03-06T01:53:31;5.75;;;4.10;;
37455;SDS011;23316;50.718;7.328;2024-03-06T01:55:59;5.00;;;3.80;;
37455;SDS011;23316;50.718;7.328;2024-03-06T01:58:30;4.82;;;3.83;;
37455;SDS011;23316;50.718;7.328;2024-03-06T02:01:00;5.93;;;3.70;;
37455;SDS011;23316;50.718;7.328;2024-03-06T02:03:28;5.43;;;3.47;;
37455;SDS011;23316;50.718;7.328;2024-03-06T02:05:57;4.53;;;3.50;;
37455;SDS011;23316;50.718;7.328;2024-03-06T02:08:27;4.40;;;3.53;;
37455;SDS011;23316;50.718;7.328;2024-03-06T02:10:54;5.40;;;3.45;;
37455;SDS011;23316;50.718;7.328;2024-03-06T02:13:21;6.03;;;3.63;;
37455;SDS011;23316;50.718;7.328;2024-03-06T02:15:50;4.60;;;3.53;;
37455;SDS011;23316;50.718;7.328;2024-03-06T02:18:17;4.38;;;3.20;;
37455;SDS011;23316;50.718;7.328;2024-03-06T02:20:46;5.95;;;3.90;;
37455;SDS011;23316;50.718;7.328;2024-03-06T02:23:15;5.20;;;3.50;;
37455;SDS011;23316;50.718;7.328;2024-03-06T02:25:43;5.05;;;3.55;;
37455;SDS011;23316;50.718;7.328;2024-03-06T02:28:12;4.53;;;3.45;;
37455;SDS011;23316;50.718;7.328;2024-03-06T02:30:39;4.10;;;3.30;;
37455;SDS011;23316;50.718;7.328;2024-03-06T02:33:07;4.03;;;2.90;;
37455;SDS011;23316;50.718;7.328;2024-03-06T02:35:34;4.28;;;3.13;;
37455;SDS011;23316;50.718;7.328;2024-03-06T02:38:03;3.78;;;3.35;;
37455;SDS011;23316;50.718;7.328;2024-03-06T02:40:31;4.13;;;3.33;;
37455;SDS011;23316;50.718;7.328;2024-03-06T02:42:58;4.32;;;3.28;;
37455;SDS011;23316;50.718;7.328;2024-03-06T02:45:25;3.92;;;3.17;;
37455;SDS011;23316;50.718;7.328;2024-03-06T02:47:53;3.30;;;3.00;;
37455;SDS011;23316;50.718;7.328;2024-03-06T02:50:20;4.30;;;3.33;;
37455;SDS011;23316;50.718;7.328;2024-03-06T02:52:48;5.20;;;3.15;;
37455;SDS011;23316;50.718;7.328;2024-03-06T02:55:18;3.40;;;2.75;;
37455;SDS011;23316;50.718;7.328;2024-03-06T02:57:46;2.80;;;2.50;;
37455;SDS011;23316;50.718;7.328;2024-03-06T03:00:13;3.30;;;2.50;;
37455;SDS011;23316;50.718;7.328;2024-03-06T03:02:41;3.33;;;2.60;;
37455;SDS011;23316;50.718;7.328;2024-03-06T03:05:09;3.28;;;2.63;;
37455;SDS011;23316;50.718;7.328;2024-03-06T03:07:36;2.53;;;2.33;;
37455;SDS011;23316;50.718;7.328;2024-03-06T03:10:03;2.88;;;2.10;;
37455;SDS011;23316;50.718;7.328;2024-03-06T03:12:33;2.90;;;2.20;;
37455;SDS011;23316;50.718;7.328;2024-03-06T03:15:00;3.22;;;2.00;;
37455;SDS011;23316;50.718;7.328;2024-03-06T03:17:27;2.58;;;2.10;;
37455;SDS011;23316;50.718;7.328;2024-03-06T03:19:54;2.25;;;1.73;;
37455;SDS011;23316;50.718;7.328;2024-03-06T03:22:22;2.50;;;1.80;;
37455;SDS011;23316;50.718;7.328;2024-03-06T03:24:49;2.75;;;1.63;;
37455;SDS011;23316;50.718;7.328;2024-03-06T03:27:16;2.70;;;1.80;;
37455;SDS011;23316;50.718;7.328;2024-03-06T03:29:45;2.47;;;2.03;;
37455;SDS011;23316;50.718;7.328;2024-03-06T03:32:12;2.53;;;1.92;;
37455;SDS011;23316;50.718;7.328;2024-03-06T03:34:42;2.55;;;1.80;;
37455;SDS011;23316;50.718;7.328;2024-03-06T03:37:09;3.92;;;1.90;;
37455;SDS011;23316;50.718;7.328;2024-03-06T03:39:36;3.08;;;2.03;;
37455;SDS011;23316;50.718;7.328;2024-03-06T03:42:03;2.53;;;1.92;;
37455;SDS011;23316;50.718;7.328;2024-03-06T03:44:31;2.17;;;1.92;;
37455;SDS011;23316;50.718;7.328;2024-03-06T03:47:00;2.22;;;1.90;;
37455;SDS011;23316;50.718;7.328;2024-03-06T03:49:27;4.05;;;1.95;;
37455;SDS011;23316;50.718;7.328;2024-03-06T03:51:54;3.35;;;2.10;;
37455;SDS011;23316;50.718;7.328;2024-03-06T03:54:22;3.92;;;2.15;;
37455;SDS011;23316;50.718;7.328;2024-03-06T03:56:49;2.70;;;2.20;;
37455;SDS011;23316;50.718;7.328;2024-03-06T03:59:16;2.80;;;2.00;;
37455;SDS011;23316;50.718;7.328;2024-03-06T04:01:44;2.50;;;2.20;;
37455;SDS011;23316;50.718;7.328;2024-03-06T04:04:13;2.42;;;2.03;;
37455;SDS011;23316;50.718;7.328;2024-03-06T04:06:41;2.97;;;2.17;;
37455;SDS011;23316;50.718;7.328;2024-03-06T04:09:08;2.95;;;2.22;;
37455;SDS011;23316;50.718;7.328;2024-03-06T04:11:36;2.25;;;1.88;;
37455;SDS011;23316;50.718;7.328;2024-03-06T04:14:03;3.35;;;2.10;;
37455;SDS011;23316;50.718;7.328;2024-03-06T04:16:31;1.98;;;1.75;;
37455;SDS011;23316;50.718;7.328;2024-03-06T04:18:59;2.72;;;1.80;;
37455;SDS011;23316;50.718;7.328;2024-03-06T04:21:27;2.60;;;1.73;;
37455;SDS011;23316;50.718;7.328;2024-03-06T04:23:55;2.33;;;2.00;;
37455;SDS011;23316;50.718;7.328;2024-03-06T04:26:23;1.65;;;1.55;;
37455;SDS011;23316;50.718;7.328;2024-03-06T04:28:50;2.25;;;1.73;;
37455;SDS011;23316;50.718;7.328;2024-03-06T04:31:17;3.03;;;2.13;;
37455;SDS011;23316;50.718;7.328;2024-03-06T04:33:44;2.67;;;1.63;;
37455;SDS011;23316;50.718;7.328;2024-03-06T04:36:12;1.85;;;1.65;;
37455;SDS011;23316;50.718;7.328;2024-03-06T04:38:41;1.60;;;1.50;;
37455;SDS011;23316;50.718;7.328;2024-03-06T04:41:08;1.75;;;1.50;;
37455;SDS011;23316;50.718;7.328;2024-03-06T04:43:36;1.70;;;1.60;;
37455;SDS011;23316;50.718;7.328;2024-03-06T04:46:03;1.52;;;1.42;;
37455;SDS011;23316;50.718;7.328;2024-03-06T04:48:30;2.45;;;1.77;;
37455;SDS011;23316;50.718;7.328;2024-03-06T04:50:58;1.58;;;1.45;;
37455;SDS011;23316;50.718;7.328;2024-03-06T04:53:25;1.50;;;1.40;;
37455;SDS011;23316;50.718;7.328;2024-03-06T04:55:54;2.00;;;1.80;;
37455;SDS011;23316;50.718;7.328;2024-03-06T04:58:21;1.75;;;1.65;;
37455;SDS011;23316;50.718;7.328;2024-03-06T05:00:48;1.60;;;1.50;;
37455;SDS011;23316;50.718;7.328;2024-03-06T05:03:15;2.35;;;1.90;;
37455;SDS011;23316;50.718;7.328;2024-03-06T05:05:43;1.77;;;1.63;;
37455;SDS011;23316;50.718;7.328;2024-03-06T05:08:10;1.70;;;1.60;;
37455;SDS011;23316;50.718;7.328;2024-03-06T05:10:37;1.40;;;1.30;;
37455;SDS011;23316;50.718;7.328;2024-03-06T05:13:07;2.38;;;1.50;;
37455;SDS011;23316;50.718;7.328;2024-03-06T05:15:34;1.98;;;1.55;;
37455;SDS011;23316;50.718;7.328;2024-03-06T05:18:01;1.95;;;1.52;;
37455;SDS011;23316;50.718;7.328;2024-03-06T05:20:28;1.55;;;1.35;;
37455;SDS011;23316;50.718;7.328;2024-03-06T05:22:56;2.42;;;1.50;;
37455;SDS011;23316;50.718;7.328;2024-03-06T05:25:23;1.58;;;1.40;;
37455;SDS011;23316;50.718;7.328;2024-03-06T05:27:51;1.55;;;1.35;;
37455;SDS011;23316;50.718;7.328;2024-03-06T05:30:19;1.60;;;1.50;;
37455;SDS011;23316;50.718;7.328;2024-03-06T05:32:47;1.52;;;1.42;;
37455;SDS011;23316;50.718;7.328;2024-03-06T05:35:14;1.40;;;1.30;;
37455;SDS011;23316;50.718;7.328;2024-03-06T05:37:42;1.77;;;1.35;;
37455;SDS011;23316;50.718;7.328;2024-03-06T05:40:10;6.82;;;1.60;;
37455;SDS011;23316;50.718;7.328;2024-03-06T05:42:38;2.00;;;1.17;;
37455;SDS011;23316;50.718;7.328;2024-03-06T05:45:05;3.25;;;1.77;;
37455;SDS011;23316;50.718;7.328;2024-03-06T05:47:37;10.70;;;1.67;;
37455;SDS011;23316;50.718;7.328;2024-03-06T05:50:05;11.10;;;1.75;;
37455;SDS011;23316;50.718;7.328;2024-03-06T05:52:32;1.45;;;1.30;;
37455;SDS011;23316;50.718;7.328;2024-03-06T05:55:00;6.45;;;1.40;;
37455;SDS011;23316;50.718;7.328;2024-03-06T05:57:27;21.23;;;2.05;;
37455;SDS011;23316;50.718;7.328;2024-03-06T05:59:55;9.88;;;2.55;;
37455;SDS011;23316;50.718;7.328;2024-03-06T06:02:22;35.03;;;14.43;;
37455;SDS011;23316;50.718;7.328;2024-03-06T06:04:51;34.63;;;13.70;;
37455;SDS011;23316;50.718;7.328;2024-03-06T06:07:18;21.67;;;10.95;;
37455;SDS011;23316;50.718;7.328;2024-03-06T06:09:45;41.95;;;11.10;;
37455;SDS011;23316;50.718;7.328;2024-03-06T06:12:14;22.20;;;9.57;;
37455;SDS011;23316;50.718;7.328;2024-03-06T06:14:42;18.00;;;7.43;;
37455;SDS011;23316;50.718;7.328;2024-03-06T06:17:10;14.25;;;6.63;;
37455;SDS011;23316;50.718;7.328;2024-03-06T06:19:38;14.45;;;5.82;;
37455;SDS011;23316;50.718;7.328;2024-03-06T06:22:10;10.85;;;5.22;;
37455;SDS011;23316;50.718;7.328;2024-03-06T06:24:38;9.15;;;4.65;;
37455;SDS011;23316;50.718;7.328;2024-03-06T06:27:06;9.88;;;4.82;;
37455;SDS011;23316;50.718;7.328;2024-03-06T06:29:34;9.55;;;4.53;;
37455;SDS011;23316;50.718;7.328;2024-03-06T06:32:01;21.23;;;4.47;;
37455;SDS011;23316;50.718;7.328;2024-03-06T06:34:29;9.82;;;3.47;;
37455;SDS011;23316;50.718;7.328;2024-03-06T06:36:57;5.90;;;2.90;;
37455;SDS011;23316;50.718;7.328;2024-03-06T06:39:26;6.18;;;2.92;;
37455;SDS011;23316;50.718;7.328;2024-03-06T06:41:53;7.60;;;3.05;;
37455;SDS011;23316;50.718;7.328;2024-03-06T06:44:20;6.25;;;2.95;;
37455;SDS011;23316;50.718;7.328;2024-03-06T06:46:47;5.95;;;2.70;;
37455;SDS011;23316;50.718;7.328;2024-03-06T06:49:14;11.77;;;2.45;;
37455;SDS011;23316;50.718;7.328;2024-03-06T06:51:43;12.77;;;2.88;;
37455;SDS011;23316;50.718;7.328;2024-03-06T06:54:10;6.95;;;2.45;;
37455;SDS011;23316;50.718;7.328;2024-03-06T06:56:38;8.20;;;2.28;;
37455;SDS011;23316;50.718;7.328;2024-03-06T06:59:06;12.27;;;2.63;;
37455;SDS011;23316;50.718;7.328;2024-03-06T07:01:33;4.68;;;1.92;;
37455;SDS011;23316;50.718;7.328;2024-03-06T07:04:00;2.47;;;1.90;;
37455;SDS011;23316;50.718;7.328;2024-03-06T07:06:27;5.20;;;1.67;;
37455;SDS011;23316;50.718;7.328;2024-03-06T07:08:55;4.07;;;1.92;;
37455;SDS011;23316;50.718;7.328;2024-03-06T07:11:22;4.80;;;1.60;;
37455;SDS011;23316;50.718;7.328;2024-03-06T07:13:51;3.95;;;1.52;;
37455;SDS011;23316;50.718;7.328;2024-03-06T07:16:18;2.25;;;1.30;;
37455;SDS011;23316;50.718;7.328;2024-03-06T07:18:46;3.45;;;1.40;;
37455;SDS011;23316;50.718;7.328;2024-03-06T07:21:13;1.90;;;1.23;;
37455;SDS011;23316;50.718;7.328;2024-03-06T07:23:40;1.98;;;1.40;;
37455;SDS011;23316;50.718;7.328;2024-03-06T07:26:07;3.67;;;1.33;;
37455;SDS011;23316;50.718;7.328;2024-03-06T07:28:35;2.42;;;1.60;;
37455;SDS011;23316;50.718;7.328;2024-03-06T07:31:04;2.38;;;1.45;;
37455;SDS011;23316;50.718;7.328;2024-03-06T07:33:31;2.78;;;1.52;;
37455;SDS011;23316;50.718;7.328;2024-03-06T07:36:03;4.20;;;1.20;;
37455;SDS011;23316;50.718;7.328;2024-03-06T07:38:31;4.85;;;1.33;;
37455;SDS011;23316;50.718;7.328;2024-03-06T07:40:58;2.42;;;1.08;;
37455;SDS011;23316;50.718;7.328;2024-03-06T07:43:25;6.78;;;1.50;;
37455;SDS011;23316;50.718;7.328;2024-03-06T07:45:53;3.80;;;1.15;;
37455;SDS011;23316;50.718;7.328;2024-03-06T07:48:22;1.88;;;1.50;;
37455;SDS011;23316;50.718;7.328;2024-03-06T07:50:49;5.15;;;1.30;;
37455;SDS011;23316;50.718;7.328;2024-03-06T07:53:16;4.90;;;1.40;;
37455;SDS011;23316;50.718;7.328;2024-03-06T07:55:44;7.47;;;2.20;;
37455;SDS011;23316;50.718;7.328;2024-03-06T07:58:11;9.07;;;2.60;;
37455;SDS011;23316;50.718;7.328;2024-03-06T08:00:38;50.42;;;28.77;;
37455;SDS011;23316;50.718;7.328;2024-03-06T08:03:05;96.20;;;54.65;;
37455;SDS011;23316;50.718;7.328;2024-03-06T08:05:34;57.10;;;32.42;;
37455;SDS011;23316;50.718;7.328;2024-03-06T08:08:01;34.38;;;19.23;;
37455;SDS011;23316;50.718;7.328;2024-03-06T08:10:30;32.45;;;12.57;;
37455;SDS011;23316;50.718;7.328;2024-03-06T08:12:59;23.65;;;9.98;;
37455;SDS011;23316;50.718;7.328;2024-03-06T08:15:26;26.08;;;9.80;;
37455;SDS011;23316;50.718;7.328;2024-03-06T08:17:53;22.52;;;7.50;;
37455;SDS011;23316;50.718;7.328;2024-03-06T08:20:21;9.48;;;4.88;;
37455;SDS011;23316;50.718;7.328;2024-03-06T08:22:50;37.92;;;5.72;;
37455;SDS011;23316;50.718;7.328;2024-03-06T08:25:17;12.10;;;4.65;;
37455;SDS011;23316;50.718;7.328;2024-03-06T08:27:44;24.95;;;5.30;;
37455;SDS011;23316;50.718;7.328;2024-03-06T08:30:11;7.63;;;4.38;;
37455;SDS011;23316;50.718;7.328;2024-03-06T08:32:39;7.63;;;4.07;;
37455;SDS011;23316;50.718;7.328;2024-03-06T08:35:10;6.70;;;4.15;;
37455;SDS011;23316;50.718;7.328;2024-03-06T08:37:38;15.15;;;3.78;;
37455;SDS011;23316;50.718;7.328;2024-03-06T08:40:08;5.75;;;3.47;;
37455;SDS011;23316;50.718;7.328;2024-03-06T08:42:40;7.80;;;3.40;;
37455;SDS011;23316;50.718;7.328;2024-03-06T08:45:07;8.88;;;4.05;;
37455;SDS011;23316;50.718;7.328;2024-03-06T08:47:35;5.55;;;3.42;;
37455;SDS011;23316;50.718;7.328;2024-03-06T08:50:02;5.30;;;3.50;;
37455;SDS011;23316;50.718;7.328;2024-03-06T08:52:30;7.32;;;2.90;;
37455;SDS011;23316;50.718;7.328;2024-03-06T08:54:58;7.13;;;2.83;;
37455;SDS011;23316;50.718;7.328;2024-03-06T08:57:27;6.00;;;2.90;;
37455;SDS011;23316;50.718;7.328;2024-03-06T08:59:56;4.43;;;2.80;;
37455;SDS011;23316;50.718;7.328;2024-03-06T09:02:23;2.97;;;2.40;;
37455;SDS011;23316;50.718;7.328;2024-03-06T09:04:51;4.47;;;2.75;;
37455;SDS011;23316;50.718;7.328;2024-03-06T09:07:19;4.97;;;2.40;;
37455;SDS011;23316;50.718;7.328;2024-03-06T09:09:49;6.15;;;2.70;;
37455;SDS011;23316;50.718;7.328;2024-03-06T09:12:17;5.47;;;2.20;;
37455;SDS011;23316;50.718;7.328;2024-03-06T09:14:46;2.83;;;2.30;;
37455;SDS011;23316;50.718;7.328;2024-03-06T09:17:13;3.95;;;2.60;;
37455;SDS011;23316;50.718;7.328;2024-03-06T09:19:40;4.15;;;2.40;;
37455;SDS011;23316;50.718;7.328;2024-03-06T09:22:08;6.15;;;2.90;;
37455;SDS011;23316;50.718;7.328;2024-03-06T09:24:35;4.95;;;2.97;;
37455;SDS011;23316;50.718;7.328;2024-03-06T09:27:03;4.65;;;3.10;;
37455;SDS011;23316;50.718;7.328;2024-03-06T09:29:31;6.75;;;3.03;;
37455;SDS011;23316;50.718;7.328;2024-03-06T09:31:59;3.95;;;3.10;;
37455;SDS011;23316;50.718;7.328;2024-03-06T09:34:27;4.55;;;2.92;;
37455;SDS011;23316;50.718;7.328;2024-03-06T09:36:54;3.63;;;3.08;;
37455;SDS011;23316;50.718;7.328;2024-03-06T09:39:21;3.50;;;2.80;;
37455;SDS011;23316;50.718;7.328;2024-03-06T09:41:48;3.30;;;2.60;;
37455;SDS011;23316;50.718;7.328;2024-03-06T09:44:16;4.70;;;2.30;;
37455;SDS011;23316;50.718;7.328;2024-03-06T09:46:44;5.63;;;2.50;;
37455;SDS011;23316;50.718;7.328;2024-03-06T09:49:14;6.78;;;3.25;;
37455;SDS011;23316;50.718;7.328;2024-03-06T09:51:43;3.13;;;2.83;;
37455;SDS011;23316;50.718;7.328;2024-03-06T09:54:12;6.78;;;2.45;;
37455;SDS011;23316;50.718;7.328;2024-03-06T09:56:41;4.05;;;2.08;;
37455;SDS011;23316;50.718;7.328;2024-03-06T09:59:10;3.15;;;1.77;;
37455;SDS011;23316;50.718;7.328;2024-03-06T10:01:39;3.35;;;2.00;;
37455;SDS011;23316;50.718;7.328;2024-03-06T10:04:21;1.95;;;1.63;;
37455;SDS011;23316;50.718;7.328;2024-03-06T10:06:50;2.25;;;1.70;;
37455;SDS011;23316;50.718;7.328;2024-03-06T10:09:20;1.98;;;1.48;;
37455;SDS011;23316;50.718;7.328;2024-03-06T10:11:48;1.65;;;1.23;;
37455;SDS011;23316;50.718;7.328;2024-03-06T10:14:18;1.95;;;1.73;;
37455;SDS011;23316;50.718;7.328;2024-03-06T10:16:51;1.98;;;1.38;;
37455;SDS011;23316;50.718;7.328;2024-03-06T10:19:21;1.77;;;1.65;;
37455;SDS011;23316;50.718;7.328;2024-03-06T10:21:50;1.70;;;1.48;;
37455;SDS011;23316;50.718;7.328;2024-03-06T10:24:20;1.85;;;1.35;;
37455;SDS011;23316;50.718;7.328;2024-03-06T10:26:49;1.45;;;1.35;;
37455;SDS011;23316;50.718;7.328;2024-03-06T10:29:17;1.63;;;1.50;;
37455;SDS011;23316;50.718;7.328;2024-03-06T10:31:51;2.05;;;1.70;;
37455;SDS011;23316;50.718;7.328;2024-03-06T10:34:21;2.47;;;1.70;;
37455;SDS011;23316;50.718;7.328;2024-03-06T10:36:50;1.95;;;1.52;;
37455;SDS011;23316;50.718;7.328;2024-03-06T10:39:21;2.10;;;1.85;;
37455;SDS011;23316;50.718;7.328;2024-03-06T10:41:51;2.65;;;2.42;;
37455;SDS011;23316;50.718;7.328;2024-03-06T10:44:20;2.95;;;2.38;;
37455;SDS011;23316;50.718;7.328;2024-03-06T10:46:51;3.13;;;2.70;;
37455;SDS011;23316;50.718;7.328;2024-03-06T10:49:27;4.07;;;2.60;;
37455;SDS011;23316;50.718;7.328;2024-03-06T10:51:57;4.90;;;3.45;;
37455;SDS011;23316;50.718;7.328;2024-03-06T10:54:26;5.55;;;3.60;;
37455;SDS011;23316;50.718;7.328;2024-03-06T10:56:55;5.80;;;4.15;;
37455;SDS011;23316;50.718;7.328;2024-03-06T10:59:24;7.20;;;4.57;;
37455;SDS011;23316;50.718;7.328;2024-03-06T11:01:53;7.13;;;5.20;;
37455;SDS011;23316;50.718;7.328;2024-03-06T11:04:22;6.63;;;5.65;;
37455;SDS011;23316;50.718;7.328;2024-03-06T11:06:53;7.80;;;5.93;;
37455;SDS011;23316;50.718;7.328;2024-03-06T11:09:20;8.57;;;5.82;;
37455;SDS011;23316;50.718;7.328;2024-03-06T11:11:48;8.90;;;5.70;;
37455;SDS011;23316;50.718;7.328;2024-03-06T11:14:16;7.97;;;6.57;;
37455;SDS011;23316;50.718;7.328;2024-03-06T11:28:37;6.78;;;4.75;;
37455;SDS011;23316;50.718;7.328;2024-03-06T11:31:07;6.40;;;4.70;;
37455;SDS011;23316;50.718;7.328;2024-03-06T11:33:37;5.40;;;4.70;;
37455;SDS011;23316;50.718;7.328;2024-03-06T11:36:15;5.45;;;4.35;;
37455;SDS011;23316;50.718;7.328;2024-03-06T11:38:48;5.40;;;4.07;;
37455;SDS011;23316;50.718;7.328;2024-03-06T11:41:19;6.40;;;4.60;;
37455;SDS011;23316;50.718;7.328;2024-03-06T11:43:48;5.22;;;3.97;;
37455;SDS011;23316;50.718;7.328;2024-03-06T11:46:18;5.13;;;4.00;;
37455;SDS011;23316;50.718;7.328;2024-03-06T11:48:52;6.75;;;4.25;;
37455;SDS011;23316;50.718;7.328;2024-03-06T11:51:20;5.45;;;4.32;;
37455;SDS011;23316;50.718;7.328;2024-03-06T11:53:52;5.97;;;4.43;;
37455;SDS011;23316;50.718;7.328;2024-03-06T11:56:20;4.88;;;3.92;;
37455;SDS011;23316;50.718;7.328;2024-03-06T11:58:47;4.90;;;4.05;;
37455;SDS011;23316;50.718;7.328;2024-03-06T12:01:15;5.35;;;4.28;;
37455;SDS011;23316;50.718;7.328;2024-03-06T12:03:43;19.48;;;6.32;;
37455;SDS011;23316;50.718;7.328;2024-03-06T12:06:11;13.07;;;8.27;;
37455;SDS011;23316;50.718;7.328;2024-03-06T12:08:38;11.55;;;8.48;;
37455;SDS011;23316;50.718;7.328;2024-03-06T12:11:07;12.35;;;8.20;;
37455;SDS011;23316;50.718;7.328;2024-03-06T12:13:34;12.02;;;8.45;;
37455;SDS011;23316;50.718;7.328;2024-03-06T12:16:05;11.35;;;8.48;;
37455;SDS011;23316;50.718;7.328;2024-03-06T12:18:33;12.70;;;8.48;;
37455;SDS011;23316;50.718;7.328;2024-03-06T12:21:02;10.05;;;8.02;;
37455;SDS011;23316;50.718;7.328;2024-03-06T12:23:31;7.95;;;7.15;;
37455;SDS011;23316;50.718;7.328;2024-03-06T12:26:04;11.32;;;7.63;;
37455;SDS011;23316;50.718;7.328;2024-03-06T12:28:35;12.55;;;8.15;;
37455;SDS011;23316;50.718;7.328;2024-03-06T12:31:03;12.02;;;8.10;;
37455;SDS011;23316;50.718;7.328;2024-03-06T12:33:31;9.57;;;7.35;;
37455;SDS011;23316;50.718;7.328;2024-03-06T12:36:03;9.88;;;6.13;;
37455;SDS011;23316;50.718;7.328;2024-03-06T12:38:32;11.85;;;6.90;;
37455;SDS011;23316;50.718;7.328;2024-03-06T12:40:59;9.88;;;6.55;;
37455;SDS011;23316;50.718;7.328;2024-03-06T12:43:27;10.20;;;6.50;;
37455;SDS011;23316;50.718;7.328;2024-03-06T12:45:56;19.92;;;9.05;;
37455;SDS011;23316;50.718;7.328;2024-03-06T12:48:24;12.45;;;7.80;;
37455;SDS011;23316;50.718;7.328;2024-03-06T12:50:51;10.20;;;6.22;;
37455;SDS011;23316;50.718;7.328;2024-03-06T12:53:20;7.68;;;5.78;;
37455;SDS011;23316;50.718;7.328;2024-03-06T12:55:48;8.55;;;6.25;;
37455;SDS011;23316;50.718;7.328;2024-03-06T12:58:15;7.60;;;5.55;;
37455;SDS011;23316;50.718;7.328;2024-03-06T13:00:42;6.63;;;4.45;;
37455;SDS011;23316;50.718;7.328;2024-03-06T13:03:11;5.10;;;3.60;;
37455;SDS011;23316;50.718;7.328;2024-03-06T13:05:38;6.57;;;4.00;;
37455;SDS011;23316;50.718;7.328;2024-03-06T13:08:06;6.18;;;3.83;;
37455;SDS011;23316;50.718;7.328;2024-03-06T13:10:33;6.18;;;3.83;;
37455;SDS011;23316;50.718;7.328;2024-03-06T13:13:01;6.78;;;2.83;;
37455;SDS011;23316;50.718;7.328;2024-03-06T13:15:28;4.43;;;3.15;;
37455;SDS011;23316;50.718;7.328;2024-03-06T13:17:55;5.85;;;3.05;;
37455;SDS011;23316;50.718;7.328;2024-03-06T13:20:24;6.30;;;2.90;;
37455;SDS011;23316;50.718;7.328;2024-03-06T13:22:51;3.47;;;2.60;;
37455;SDS011;23316;50.718;7.328;2024-03-06T13:25:18;4.65;;;2.58;;
37455;SDS011;23316;50.718;7.328;2024-03-06T13:27:46;3.45;;;2.38;;
37455;SDS011;23316;50.718;7.328;2024-03-06T13:30:13;5.45;;;3.30;;
37455;SDS011;23316;50.718;7.328;2024-03-06T13:32:40;2.88;;;2.17;;
37455;SDS011;23316;50.718;7.328;2024-03-06T13:35:11;4.10;;;2.30;;
37455;SDS011;23316;50.718;7.328;2024-03-06T13:37:40;5.70;;;2.67;;
37455;SDS011;23316;50.718;7.328;2024-03-06T13:40:08;3.88;;;2.45;;
37455;SDS011;23316;50.718;7.328;2024-03-06T13:42:36;4.07;;;2.38;;
37455;SDS011;23316;50.718;7.328;2024-03-06T13:45:03;3.55;;;1.90;;
37455;SDS011;23316;50.718;7.328;2024-03-06T13:47:37;4.20;;;2.15;;
37455;SDS011;23316;50.718;7.328;2024-03-06T13:50:06;4.75;;;2.10;;
37455;SDS011;23316;50.718;7.328;2024-03-06T13:52:35;4.22;;;2.38;;
37455;SDS011;23316;50.718;7.328;2024-03-06T13:55:04;7.40;;;2.40;;
37455;SDS011;23316;50.718;7.328;2024-03-06T13:57:32;4.68;;;2.58;;
37455;SDS011;23316;50.718;7.328;2024-03-06T13:59:59;3.25;;;2.40;;
37455;SDS011;23316;50.718;7.328;2024-03-06T14:02:26;4.25;;;2.42;;
37455;SDS011;23316;50.718;7.328;2024-03-06T14:04:54;4.35;;;2.40;;
37455;SDS011;23316;50.718;7.328;2024-03-06T14:07:21;3.65;;;2.70;;
37455;SDS011;23316;50.718;7.328;2024-03-06T14:09:49;6.60;;;2.60;;
37455;SDS011;23316;50.718;7.328;2024-03-06T14:12:18;4.35;;;2.85;;
37455;SDS011;23316;50.718;7.328;2024-03-06T14:14:45;3.35;;;2.63;;
37455;SDS011;23316;50.718;7.328;2024-03-06T14:17:12;4.20;;;2.67;;
37455;SDS011;23316;50.718;7.328;2024-03-06T14:19:39;4.25;;;3.15;;
37455;SDS011;23316;50.718;7.328;2024-03-06T14:22:07;6.55;;;2.65;;
37455;SDS011;23316;50.718;7.328;2024-03-06T14:24:34;6.30;;;2.92;;
37455;SDS011;23316;50.718;7.328;2024-03-06T14:27:02;6.97;;;2.95;;
37455;SDS011;23316;50.718;7.328;2024-03-06T14:29:31;3.55;;;2.08;;
37455;SDS011;23316;50.718;7.328;2024-03-06T14:31:59;4.15;;;2.25;;
37455;SDS011;23316;50.718;7.328;2024-03-06T14:34:26;3.80;;;2.33;;
37455;SDS011;23316;50.718;7.328;2024-03-06T14:36:53;5.03;;;2.75;;
37455;SDS011;23316;50.718;7.328;2024-03-06T14:39:21;4.88;;;2.50;;
37455;SDS011;23316;50.718;7.328;2024-03-06T14:41:49;4.38;;;2.28;;
37455;SDS011;23316;50.718;7.328;2024-03-06T14:44:16;2.78;;;1.90;;
37455;SDS011;23316;50.718;7.328;2024-03-06T14:46:46;3.33;;;1.90;;
37455;SDS011;23316;50.718;7.328;2024-03-06T14:49:13;6.32;;;2.03;;
37455;SDS011;23316;50.718;7.328;2024-03-06T14:51:42;8.10;;;2.03;;
37455;SDS011;23316;50.718;7.328;2024-03-06T14:54:10;6.43;;;1.63;;
37455;SDS011;23316;50.718;7.328;2024-03-06T14:56:37;9.30;;;1.98;;
37455;SDS011;23316;50.718;7.328;2024-03-06T14:59:05;3.08;;;1.65;;
37455;SDS011;23316;50.718;7.328;2024-03-06T15:01:32;3.58;;;1.63;;